createdAt,value
2022-08-03T00:01:01.753Z,0
2022-08-03T00:02:18.059Z,0
2022-08-03T00:03:34.334Z,0
2022-08-03T00:04:50.643Z,0
2022-08-03T00:06:06.931Z,0
2022-08-03T00:07:23.235Z,0
2022-08-03T00:08:38.553Z,0
2022-08-03T00:09:53.848Z,0
2022-08-03T00:11:10.156Z,0
2022-08-03T00:12:26.450Z,0
2022-08-03T00:13:42.727Z,0
2022-08-03T00:14:59.024Z,0
2022-08-03T00:16:15.323Z,0
2022-08-03T00:17:31.622Z,0
2022-08-03T00:18:47.909Z,0
2022-08-03T00:20:04.205Z,0
2022-08-03T00:21:20.506Z,0
2022-08-03T00:22:36.804Z,0
2022-08-03T00:23:53.084Z,0
2022-08-03T00:25:09.388Z,0
2022-08-03T00:26:24.702Z,0
2022-08-03T00:27:40.988Z,0
2022-08-03T00:28:57.283Z,0
2022-08-03T00:30:13.568Z,0
2022-08-03T00:31:29.878Z,0
2022-08-03T00:32:46.159Z,0
2022-08-03T00:34:02.469Z,0
2022-08-03T00:35:17.771Z,0
2022-08-03T00:36:33.091Z,0
2022-08-03T00:37:48.395Z,0
2022-08-03T00:39:03.716Z,0
2022-08-03T00:40:20.010Z,0
2022-08-03T00:41:36.304Z,0
2022-08-03T00:42:52.590Z,0
2022-08-03T00:44:08.899Z,0
2022-08-03T00:45:25.176Z,0
2022-08-03T00:46:41.488Z,0
2022-08-03T00:47:57.781Z,0
2022-08-03T00:49:14.075Z,0
2022-08-03T00:50:30.354Z,0
2022-08-03T00:51:46.659Z,0
2022-08-03T00:53:02.950Z,0
2022-08-03T00:54:19.242Z,0
2022-08-03T00:55:34.560Z,0
2022-08-03T00:56:50.843Z,0
2022-08-03T00:58:07.153Z,0
2022-08-03T00:59:23.433Z,0
2022-08-03T01:00:39.735Z,0
2022-08-03T01:01:56.033Z,0
2022-08-03T01:03:12.311Z,0
2022-08-03T01:04:27.646Z,0
2022-08-03T01:05:42.944Z,0
2022-08-03T01:06:58.257Z,0
2022-08-03T01:08:13.579Z,0
2022-08-03T01:09:29.874Z,0
2022-08-03T01:10:46.163Z,0
2022-08-03T01:12:02.464Z,0
2022-08-03T01:13:18.738Z,0
2022-08-03T01:14:35.038Z,0
2022-08-03T01:15:51.340Z,0
2022-08-03T01:17:07.636Z,0
2022-08-03T01:18:23.927Z,0
2022-08-03T01:19:40.208Z,0
2022-08-03T01:20:56.505Z,0
2022-08-03T01:22:12.813Z,0
2022-08-03T01:23:29.105Z,0
2022-08-03T01:24:44.400Z,0
2022-08-03T01:26:00.704Z,0
2022-08-03T01:27:16.992Z,0
2022-08-03T01:28:33.303Z,0
2022-08-03T01:29:49.579Z,0
2022-08-03T01:31:05.883Z,0
2022-08-03T01:32:22.174Z,0
2022-08-03T01:33:37.490Z,0
2022-08-03T01:34:52.787Z,0
2022-08-03T01:36:09.098Z,0
2022-08-03T01:37:25.380Z,0
2022-08-03T01:38:41.678Z,0
2022-08-03T01:39:57.971Z,0
2022-08-03T01:41:14.265Z,0
2022-08-03T01:42:30.549Z,0
2022-08-03T01:43:46.844Z,0
2022-08-03T01:45:03.143Z,0
2022-08-03T01:46:19.446Z,0
2022-08-03T01:47:35.736Z,0
2022-08-03T01:48:52.016Z,0
2022-08-03T01:50:08.320Z,0
2022-08-03T01:51:23.627Z,0
2022-08-03T01:52:39.917Z,0
2022-08-03T01:53:56.216Z,0
2022-08-03T01:55:12.505Z,0
2022-08-03T01:56:28.796Z,0
2022-08-03T01:57:45.098Z,0
2022-08-03T01:59:01.384Z,0
2022-08-03T02:00:16.695Z,0
2022-08-03T02:01:32.003Z,0
2022-08-03T02:02:47.332Z,0
2022-08-03T02:04:02.629Z,0
2022-08-03T02:05:17.946Z,0
2022-08-03T02:06:33.253Z,0
2022-08-03T02:07:49.553Z,0
2022-08-03T02:09:04.880Z,0
2022-08-03T02:10:20.181Z,0
2022-08-03T02:11:36.479Z,0
2022-08-03T02:12:52.764Z,0
2022-08-03T02:14:09.062Z,0
2022-08-03T02:15:25.362Z,0
2022-08-03T02:16:41.648Z,0
2022-08-03T02:17:57.941Z,0
2022-08-03T02:19:14.238Z,0
2022-08-03T02:20:30.520Z,0
2022-08-03T02:21:46.827Z,0
2022-08-03T02:23:03.113Z,0
2022-08-03T02:24:19.413Z,0
2022-08-03T02:25:35.713Z,0
2022-08-03T02:26:51.014Z,0
2022-08-03T02:28:07.316Z,0
2022-08-03T02:29:23.594Z,0
2022-08-03T02:30:39.901Z,0
2022-08-03T02:31:56.181Z,0
2022-08-03T02:33:12.491Z,0
2022-08-03T02:34:28.768Z,0
2022-08-03T02:35:44.099Z,0
2022-08-03T02:36:59.408Z,0
2022-08-03T02:38:15.692Z,0
2022-08-03T02:39:31.004Z,0
2022-08-03T02:40:46.316Z,0
2022-08-03T02:42:02.606Z,0
2022-08-03T02:43:18.897Z,0
2022-08-03T02:44:35.194Z,0
2022-08-03T02:45:51.491Z,0
2022-08-03T02:47:07.789Z,0
2022-08-03T02:48:24.090Z,0
2022-08-03T02:50:56.680Z,0
2022-08-03T02:52:12.967Z,0
2022-08-03T02:53:29.265Z,0
2022-08-03T02:54:45.557Z,0
2022-08-03T02:56:01.839Z,0
2022-08-03T02:57:17.162Z,0
2022-08-03T02:58:33.454Z,0
2022-08-03T02:59:49.751Z,0
2022-08-03T03:01:06.050Z,0
2022-08-03T03:02:22.335Z,0
2022-08-03T03:03:38.626Z,0
2022-08-03T03:04:54.928Z,0
2022-08-03T03:06:11.152Z,1
2022-08-03T03:07:27.460Z,0
2022-08-03T03:08:42.731Z,1
2022-08-03T03:09:57.985Z,1
2022-08-03T03:11:14.356Z,1
2022-08-03T03:12:29.683Z,0
2022-08-03T03:13:45.971Z,0
2022-08-03T03:15:02.270Z,0
2022-08-03T03:16:18.513Z,1
2022-08-03T03:17:34.802Z,0
2022-08-03T03:18:51.067Z,5
2022-08-03T03:20:07.305Z,4
2022-08-03T03:21:23.544Z,2
2022-08-03T03:22:39.778Z,2
2022-08-03T03:23:56.028Z,2
2022-08-03T03:25:12.249Z,5
2022-08-03T03:26:28.491Z,9
2022-08-03T03:27:44.733Z,5
2022-08-03T03:28:59.986Z,7
2022-08-03T03:30:16.238Z,10
2022-08-03T03:31:32.478Z,13
2022-08-03T03:32:48.713Z,16
2022-08-03T03:34:04.944Z,18
2022-08-03T03:35:21.186Z,18
2022-08-03T03:36:37.439Z,23
2022-08-03T03:37:52.707Z,25
2022-08-03T03:39:07.948Z,30
2022-08-03T03:40:24.191Z,35
2022-08-03T03:41:40.440Z,38
2022-08-03T03:42:56.674Z,41
2022-08-03T03:44:12.919Z,49
2022-08-03T03:45:29.161Z,47
2022-08-03T03:46:45.409Z,58
2022-08-03T03:48:01.646Z,64
2022-08-03T03:49:17.885Z,69
2022-08-03T03:50:34.125Z,72
2022-08-03T03:51:50.363Z,77
2022-08-03T03:53:06.606Z,83
2022-08-03T03:54:22.850Z,91
2022-08-03T03:55:38.099Z,99
2022-08-03T03:56:54.330Z,103
2022-08-03T03:58:10.572Z,106
2022-08-03T03:59:26.815Z,115
2022-08-03T04:00:43.066Z,119
2022-08-03T04:01:59.293Z,128
2022-08-03T04:03:15.534Z,137
2022-08-03T04:04:30.791Z,147
2022-08-03T04:05:46.057Z,146
2022-08-03T04:07:02.296Z,154
2022-08-03T04:08:18.543Z,161
2022-08-03T04:09:34.781Z,166
2022-08-03T04:10:51.007Z,171
2022-08-03T04:12:07.263Z,179
2022-08-03T04:13:23.485Z,182
2022-08-03T04:14:39.726Z,194
2022-08-03T04:15:55.968Z,201
2022-08-03T04:17:12.223Z,202
2022-08-03T04:18:28.451Z,212
2022-08-03T04:19:44.696Z,218
2022-08-03T04:21:00.932Z,223
2022-08-03T04:22:16.190Z,226
2022-08-03T04:23:32.422Z,238
2022-08-03T04:24:48.665Z,243
2022-08-03T04:26:04.917Z,248
2022-08-03T04:27:21.147Z,257
2022-08-03T04:28:37.391Z,261
2022-08-03T04:29:53.628Z,266
2022-08-03T04:31:08.895Z,278
2022-08-03T04:32:24.150Z,285
2022-08-03T04:33:40.391Z,292
2022-08-03T04:34:56.624Z,295
2022-08-03T04:36:12.877Z,304
2022-08-03T04:37:29.101Z,306
2022-08-03T04:38:45.356Z,308
2022-08-03T04:40:01.577Z,315
2022-08-03T04:42:34.062Z,328
2022-08-03T04:43:50.305Z,334
2022-08-03T04:45:06.540Z,341
2022-08-03T04:46:22.789Z,342
2022-08-03T04:47:39.030Z,348
2022-08-03T04:48:54.292Z,354
2022-08-03T04:50:10.522Z,357
2022-08-03T04:51:26.757Z,362
2022-08-03T04:52:43.013Z,366
2022-08-03T04:53:59.253Z,373
2022-08-03T04:55:15.486Z,375
2022-08-03T04:56:31.729Z,376
2022-08-03T04:57:47.966Z,375
2022-08-03T04:59:03.231Z,379
2022-08-03T05:00:18.492Z,385
2022-08-03T05:01:33.740Z,386
2022-08-03T05:02:49.000Z,386
2022-08-03T05:04:04.258Z,389
2022-08-03T05:05:19.509Z,395
2022-08-03T05:06:35.757Z,394
2022-08-03T05:07:51.990Z,399
2022-08-03T05:09:08.229Z,401
2022-08-03T05:10:24.488Z,408
2022-08-03T05:11:40.713Z,410
2022-08-03T05:12:56.958Z,411
2022-08-03T05:14:13.203Z,416
2022-08-03T05:15:29.443Z,420
2022-08-03T05:18:01.926Z,428
2022-08-03T05:19:18.150Z,427
2022-08-03T05:20:34.401Z,432
2022-08-03T05:21:49.656Z,438
2022-08-03T05:23:05.885Z,439
2022-08-03T05:24:22.134Z,435
2022-08-03T05:25:38.381Z,444
2022-08-03T05:26:54.613Z,448
2022-08-03T05:28:10.864Z,447
2022-08-03T05:29:27.103Z,450
2022-08-03T05:30:43.328Z,449
2022-08-03T05:31:58.605Z,452
2022-08-03T05:33:13.847Z,457
2022-08-03T05:34:30.090Z,460
2022-08-03T05:35:46.327Z,467
2022-08-03T05:37:02.585Z,463
2022-08-03T05:38:18.810Z,465
2022-08-03T05:39:35.049Z,467
2022-08-03T05:40:51.290Z,467
2022-08-03T05:42:07.543Z,465
2022-08-03T05:43:23.787Z,469
2022-08-03T05:44:40.014Z,493
2022-08-03T05:45:56.259Z,459
2022-08-03T05:47:12.505Z,472
2022-08-03T05:48:28.740Z,472
2022-08-03T05:49:44.007Z,479
2022-08-03T05:51:00.234Z,490
2022-08-03T05:52:16.488Z,488
2022-08-03T05:53:32.724Z,491
2022-08-03T05:54:48.956Z,485
2022-08-03T05:56:05.197Z,484
2022-08-03T05:57:21.430Z,482
2022-08-03T05:58:36.705Z,486
2022-08-03T05:59:51.963Z,489
2022-08-03T06:01:07.216Z,498
2022-08-03T06:02:22.479Z,474
2022-08-03T06:03:37.730Z,486
2022-08-03T06:04:52.983Z,491
2022-08-03T06:06:09.224Z,489
2022-08-03T06:07:25.461Z,489
2022-08-03T06:08:41.715Z,485
2022-08-03T06:09:57.956Z,484
2022-08-03T06:11:14.181Z,482
2022-08-03T06:12:30.437Z,486
2022-08-03T06:13:46.664Z,483
2022-08-03T06:15:02.910Z,480
2022-08-03T06:16:19.151Z,480
2022-08-03T06:17:35.381Z,479
2022-08-03T06:18:51.620Z,493
2022-08-03T06:20:07.872Z,484
2022-08-03T06:21:23.120Z,465
2022-08-03T06:22:39.364Z,482
2022-08-03T06:23:55.613Z,482
2022-08-03T06:25:11.850Z,482
2022-08-03T06:26:28.090Z,483
2022-08-03T06:27:44.000Z,479
2022-08-03T06:29:00.563Z,579
2022-08-03T06:30:15.838Z,465
2022-08-03T06:31:31.077Z,387
2022-08-03T06:32:47.331Z,479
2022-08-03T06:34:02.576Z,484
2022-08-03T06:35:17.844Z,481
2022-08-03T06:36:34.070Z,487
2022-08-03T06:37:50.320Z,485
2022-08-03T06:39:06.557Z,485
2022-08-03T06:40:22.795Z,481
2022-08-03T06:41:39.035Z,477
2022-08-03T06:42:55.278Z,473
2022-08-03T06:44:11.517Z,472
2022-08-03T06:45:27.746Z,471
2022-08-03T06:46:43.993Z,467
2022-08-03T06:48:00.234Z,472
2022-08-03T06:49:16.472Z,468
2022-08-03T06:50:32.721Z,474
2022-08-03T06:51:47.971Z,477
2022-08-03T06:53:04.216Z,473
2022-08-03T06:54:20.450Z,465
2022-08-03T06:55:36.683Z,471
2022-08-03T06:56:52.922Z,472
2022-08-03T06:58:09.180Z,462
2022-08-03T06:59:25.407Z,482
2022-08-03T07:00:40.674Z,455
2022-08-03T07:01:55.922Z,467
2022-08-03T07:03:11.188Z,468
2022-08-03T07:04:26.451Z,471
2022-08-03T07:05:41.693Z,477
2022-08-03T07:06:56.954Z,482
2022-08-03T07:08:13.200Z,504
2022-08-03T07:09:29.430Z,562
2022-08-03T07:10:45.687Z,396
2022-08-03T07:12:01.915Z,474
2022-08-03T07:13:18.163Z,444
2022-08-03T07:14:34.394Z,459
2022-08-03T07:15:50.643Z,473
2022-08-03T07:17:06.871Z,473
2022-08-03T07:18:23.121Z,484
2022-08-03T07:19:39.351Z,481
2022-08-03T07:20:55.584Z,472
2022-08-03T07:22:11.835Z,469
2022-08-03T07:23:27.085Z,488
2022-08-03T07:24:43.316Z,480
2022-08-03T07:25:59.567Z,466
2022-08-03T07:27:15.802Z,471
2022-08-03T07:28:32.035Z,470
2022-08-03T07:29:48.272Z,470
2022-08-03T07:31:04.526Z,476
2022-08-03T07:32:19.768Z,500
2022-08-03T07:33:35.027Z,461
2022-08-03T07:34:50.295Z,476
2022-08-03T07:36:05.542Z,472
2022-08-03T07:37:21.778Z,474
2022-08-03T07:38:38.016Z,481
2022-08-03T07:39:54.266Z,478
2022-08-03T07:41:10.495Z,477
2022-08-03T07:42:26.732Z,478
2022-08-03T07:43:42.986Z,483
2022-08-03T07:44:59.223Z,482
2022-08-03T07:46:15.452Z,483
2022-08-03T07:47:31.696Z,482
2022-08-03T07:48:47.922Z,482
2022-08-03T07:50:04.161Z,483
2022-08-03T07:51:20.408Z,491
2022-08-03T07:52:35.660Z,489
2022-08-03T07:53:51.000Z,488
2022-08-03T07:55:08.143Z,490
2022-08-03T07:56:24.382Z,499
2022-08-03T07:57:40.629Z,492
2022-08-03T07:58:56.865Z,496
2022-08-03T08:00:13.108Z,491
2022-08-03T08:01:28.358Z,495
2022-08-03T08:02:43.619Z,496
2022-08-03T08:03:58.871Z,498
2022-08-03T08:05:14.123Z,499
2022-08-03T08:06:30.371Z,501
2022-08-03T08:07:46.609Z,500
2022-08-03T08:09:02.838Z,506
2022-08-03T08:10:19.074Z,506
2022-08-03T08:11:35.316Z,506
2022-08-03T08:12:51.564Z,509
2022-08-03T08:14:07.786Z,514
2022-08-03T08:15:24.042Z,525
2022-08-03T08:16:40.281Z,511
2022-08-03T08:17:56.508Z,508
2022-08-03T08:19:12.755Z,515
2022-08-03T08:20:28.982Z,524
2022-08-03T08:21:44.236Z,524
2022-08-03T08:23:00.471Z,536
2022-08-03T08:24:16.710Z,531
2022-08-03T08:25:32.949Z,508
2022-08-03T08:26:49.197Z,547
2022-08-03T08:28:05.422Z,495
2022-08-03T08:29:21.672Z,498
2022-08-03T08:30:36.927Z,508
2022-08-03T08:31:52.182Z,525
2022-08-03T08:33:07.450Z,531
2022-08-03T08:34:22.690Z,528
2022-08-03T08:35:38.933Z,536
2022-08-03T08:36:54.202Z,542
2022-08-03T08:38:09.449Z,541
2022-08-03T08:39:25.691Z,546
2022-08-03T08:40:41.938Z,544
2022-08-03T08:41:58.175Z,549
2022-08-03T08:43:14.411Z,548
2022-08-03T08:44:30.642Z,554
2022-08-03T08:45:46.886Z,556
2022-08-03T08:47:03.124Z,552
2022-08-03T08:48:19.356Z,569
2022-08-03T08:49:35.597Z,543
2022-08-03T08:50:51.841Z,555
2022-08-03T08:52:08.070Z,559
2022-08-03T08:53:24.324Z,559
2022-08-03T08:54:39.568Z,595
2022-08-03T08:55:55.813Z,577
2022-08-03T08:57:12.042Z,610
2022-08-03T08:58:28.283Z,537
2022-08-03T08:59:44.521Z,497
2022-08-03T09:01:00.771Z,536
2022-08-03T09:02:17.012Z,553
2022-08-03T09:03:32.269Z,560
2022-08-03T09:04:47.524Z,634
2022-08-03T09:06:03.761Z,550
2022-08-03T09:07:19.026Z,589
2022-08-03T09:08:34.272Z,586
2022-08-03T09:09:50.506Z,581
2022-08-03T09:11:06.763Z,578
2022-08-03T09:12:22.992Z,586
2022-08-03T09:13:39.222Z,602
2022-08-03T09:14:55.480Z,585
2022-08-03T09:16:11.711Z,572
2022-08-03T09:17:27.946Z,585
2022-08-03T09:18:44.192Z,588
2022-08-03T09:20:00.431Z,626
2022-08-03T09:21:16.658Z,580
2022-08-03T09:22:32.907Z,611
2022-08-03T09:23:49.154Z,579
2022-08-03T09:25:04.399Z,547
2022-08-03T09:26:20.634Z,600
2022-08-03T09:27:36.878Z,595
2022-08-03T09:28:53.124Z,609
2022-08-03T09:30:09.360Z,624
2022-08-03T09:31:25.601Z,597
2022-08-03T09:32:41.842Z,614
2022-08-03T09:33:57.101Z,614
2022-08-03T09:35:12.343Z,626
2022-08-03T09:36:28.590Z,615
2022-08-03T09:37:44.823Z,624
2022-08-03T09:39:01.059Z,631
2022-08-03T09:40:17.299Z,638
2022-08-03T09:41:33.543Z,612
2022-08-03T09:42:49.778Z,638
2022-08-03T09:44:06.014Z,696
2022-08-03T09:45:22.256Z,614
2022-08-03T09:46:38.502Z,655
2022-08-03T09:49:10.986Z,644
2022-08-03T09:50:27.209Z,642
2022-08-03T09:51:42.468Z,653
2022-08-03T09:52:58.707Z,690
2022-08-03T09:54:14.961Z,684
2022-08-03T09:55:31.200Z,671
2022-08-03T09:56:47.423Z,653
2022-08-03T09:58:03.662Z,678
2022-08-03T09:59:19.907Z,675
2022-08-03T10:00:36.157Z,679
2022-08-03T10:01:51.420Z,683
2022-08-03T10:03:06.667Z,683
2022-08-03T10:04:21.935Z,692
2022-08-03T10:05:37.185Z,728
2022-08-03T10:06:53.417Z,721
2022-08-03T10:08:09.654Z,671
2022-08-03T10:09:25.891Z,706
2022-08-03T10:10:42.140Z,711
2022-08-03T10:11:58.387Z,725
2022-08-03T10:13:14.609Z,734
2022-08-03T10:14:30.868Z,743
2022-08-03T10:15:47.088Z,757
2022-08-03T10:17:03.338Z,759
2022-08-03T10:18:19.566Z,769
2022-08-03T10:19:35.819Z,776
2022-08-03T10:20:52.051Z,781
2022-08-03T10:22:07.302Z,795
2022-08-03T10:23:23.542Z,800
2022-08-03T10:24:39.795Z,844
2022-08-03T10:25:56.038Z,880
2022-08-03T10:27:12.262Z,1053
2022-08-03T10:28:28.507Z,786
2022-08-03T10:29:44.759Z,930
2022-08-03T10:31:00.004Z,1317
2022-08-03T10:32:15.271Z,1662
2022-08-03T10:33:30.529Z,1746
2022-08-03T10:34:45.788Z,1877
2022-08-03T10:36:02.024Z,1956
2022-08-03T10:37:18.263Z,2104
2022-08-03T10:38:34.495Z,2160
2022-08-03T10:39:50.746Z,2239
2022-08-03T10:41:06.987Z,2299
2022-08-03T10:42:23.219Z,2334
2022-08-03T10:43:39.463Z,2407
2022-08-03T10:44:55.706Z,2526
2022-08-03T10:46:11.935Z,2531
2022-08-03T10:47:28.186Z,2622
2022-08-03T10:48:44.427Z,2751
2022-08-03T10:50:00.655Z,2733
2022-08-03T10:51:15.919Z,2803
2022-08-03T10:52:32.153Z,2848
2022-08-03T10:53:47.418Z,2909
2022-08-03T10:55:02.688Z,2989
2022-08-03T10:56:18.913Z,3020
2022-08-03T10:57:35.151Z,3059
2022-08-03T10:58:51.408Z,3042
2022-08-03T11:00:07.637Z,3130
2022-08-03T11:01:23.877Z,3169
2022-08-03T11:02:40.117Z,3148
2022-08-03T11:03:56.353Z,3237
2022-08-03T11:05:12.609Z,3257
2022-08-03T11:06:28.839Z,3341
2022-08-03T11:07:45.087Z,3367
2022-08-03T11:09:01.329Z,3406
2022-08-03T11:10:17.553Z,3408
2022-08-03T11:11:32.821Z,3441
2022-08-03T11:12:49.057Z,3560
2022-08-03T11:14:05.304Z,3598
2022-08-03T11:15:21.541Z,3688
2022-08-03T11:16:37.770Z,3620
2022-08-03T11:17:54.010Z,3677
2022-08-03T11:19:10.245Z,3712
2022-08-03T11:20:25.508Z,3791
2022-08-03T11:21:40.775Z,3808
2022-08-03T11:22:56.040Z,3797
2022-08-03T11:24:11.293Z,3857
2022-08-03T11:25:27.526Z,3888
2022-08-03T11:26:43.775Z,3952
2022-08-03T11:28:00.004Z,4192
2022-08-03T11:29:16.244Z,3870
2022-08-03T11:30:32.490Z,3879
2022-08-03T11:31:48.738Z,4109
2022-08-03T11:33:04.971Z,4517
2022-08-03T11:34:21.208Z,4364
2022-08-03T11:35:37.463Z,4199
2022-08-03T11:36:53.695Z,4265
2022-08-03T11:38:09.926Z,4130
2022-08-03T11:39:26.172Z,3986
2022-08-03T11:40:41.433Z,3996
2022-08-03T11:41:57.674Z,4424
2022-08-03T11:43:13.910Z,3331
2022-08-03T11:44:30.146Z,4778
2022-08-03T11:45:46.377Z,3872
2022-08-03T11:47:02.625Z,4318
2022-08-03T11:48:18.856Z,4742
2022-08-03T11:49:34.121Z,4582
2022-08-03T11:50:49.371Z,4876
2022-08-03T11:52:05.627Z,4813
2022-08-03T11:53:21.855Z,5096
2022-08-03T11:54:38.093Z,5196
2022-08-03T11:55:54.336Z,5195
2022-08-03T11:57:10.569Z,5262
2022-08-03T11:58:26.815Z,5271
2022-08-03T11:59:43.046Z,5293
2022-08-03T12:00:59.295Z,5330
2022-08-03T12:02:15.528Z,5567
2022-08-03T12:03:31.766Z,5328
2022-08-03T12:04:48.003Z,5434
2022-08-03T12:06:04.251Z,5622
2022-08-03T12:07:19.504Z,5599
2022-08-03T12:08:35.756Z,5607
2022-08-03T12:09:51.989Z,5789
2022-08-03T12:11:08.234Z,5842
2022-08-03T12:12:24.478Z,5903
2022-08-03T12:13:40.698Z,5775
2022-08-03T12:14:56.955Z,5985
2022-08-03T12:16:12.199Z,7168
2022-08-03T12:17:27.458Z,5521
2022-08-03T12:18:42.726Z,5419
2022-08-03T12:19:57.985Z,4518
2022-08-03T12:21:14.216Z,6252
2022-08-03T12:22:30.462Z,4544
2022-08-03T12:23:46.689Z,4759
2022-08-03T12:25:02.934Z,5773
2022-08-03T12:26:19.174Z,4822
2022-08-03T12:27:35.419Z,5920
2022-08-03T12:28:51.660Z,5466
2022-08-03T12:30:07.892Z,5696
2022-08-03T12:31:24.125Z,6713
2022-08-03T12:32:40.363Z,4651
2022-08-03T12:33:56.619Z,5202
2022-08-03T12:35:12.845Z,5081
2022-08-03T12:36:28.114Z,5991
2022-08-03T12:37:44.355Z,6103
2022-08-03T12:39:00.586Z,5977
2022-08-03T12:40:16.825Z,6011
2022-08-03T12:41:33.071Z,6975
2022-08-03T12:42:49.302Z,5977
2022-08-03T12:44:05.541Z,5894
2022-08-03T12:45:20.812Z,4608
2022-08-03T12:46:36.069Z,5981
2022-08-03T12:47:51.324Z,5563
2022-08-03T12:49:06.569Z,5086
2022-08-03T12:50:21.847Z,6164
2022-08-03T12:51:37.099Z,6365
2022-08-03T12:52:52.356Z,6367
2022-08-03T12:54:07.603Z,6307
2022-08-03T12:55:23.845Z,6270
2022-08-03T12:56:40.081Z,6279
2022-08-03T12:57:56.327Z,6329
2022-08-03T12:59:12.564Z,6284
2022-08-03T13:00:28.807Z,6221
2022-08-03T13:01:45.048Z,6208
2022-08-03T13:03:01.291Z,6256
2022-08-03T13:04:17.527Z,6260
2022-08-03T13:05:33.774Z,6291
2022-08-03T13:06:50.008Z,6499
2022-08-03T13:08:06.241Z,6230
2022-08-03T13:09:22.491Z,6175
2022-08-03T13:10:37.732Z,5875
2022-08-03T13:13:10.209Z,6447
2022-08-03T13:14:26.461Z,6400
2022-08-03T13:15:42.705Z,6454
2022-08-03T13:16:58.944Z,5238
2022-08-03T13:18:15.173Z,6086
2022-08-03T13:19:31.419Z,6156
2022-08-03T13:20:46.674Z,6176
2022-08-03T13:22:01.941Z,6180
2022-08-03T13:23:17.196Z,6271
2022-08-03T13:24:32.447Z,6265
2022-08-03T13:25:48.700Z,6807
2022-08-03T13:27:04.929Z,5978
2022-08-03T13:28:21.161Z,6215
2022-08-03T13:29:37.406Z,5695
2022-08-03T13:30:53.646Z,6676
2022-08-03T13:32:09.889Z,6986
2022-08-03T13:33:26.131Z,4241
2022-08-03T13:34:42.371Z,6016
2022-08-03T13:35:58.605Z,7992
2022-08-03T13:37:14.849Z,3874
2022-08-03T13:38:31.085Z,4890
2022-08-03T13:39:47.316Z,6196
2022-08-03T13:41:02.582Z,6300
2022-08-03T13:42:18.817Z,6616
2022-08-03T13:43:35.069Z,6725
2022-08-03T13:44:51.304Z,6816
2022-08-03T13:46:07.543Z,7049
2022-08-03T13:47:23.789Z,4835
2022-08-03T13:48:40.011Z,5204
2022-08-03T13:49:55.280Z,6318
2022-08-03T13:51:10.547Z,6592
2022-08-03T13:52:26.788Z,6576
2022-08-03T13:53:43.019Z,6618
2022-08-03T13:54:59.262Z,6740
2022-08-03T13:56:15.499Z,6729
2022-08-03T13:57:31.735Z,6749
2022-08-03T13:58:47.968Z,6723
2022-08-03T14:00:04.208Z,6724
2022-08-03T14:01:20.460Z,6784
2022-08-03T14:02:36.699Z,6760
2022-08-03T14:03:52.948Z,6793
2022-08-03T14:05:09.168Z,6849
2022-08-03T14:06:25.415Z,6885
2022-08-03T14:07:40.673Z,6952
2022-08-03T14:08:56.000Z,6880
2022-08-03T14:10:13.163Z,7023
2022-08-03T14:11:29.390Z,8630
2022-08-03T14:12:45.625Z,5408
2022-08-03T14:14:01.872Z,6054
2022-08-03T14:15:18.114Z,5306
2022-08-03T14:16:33.365Z,7066
2022-08-03T14:17:48.621Z,6720
2022-08-03T14:19:03.890Z,6527
2022-08-03T14:20:19.139Z,6897
2022-08-03T14:21:35.000Z,6606
2022-08-03T14:22:51.620Z,7006
2022-08-03T14:24:07.867Z,7094
2022-08-03T14:25:24.101Z,7293
2022-08-03T14:26:40.339Z,7308
2022-08-03T14:27:56.575Z,7350
2022-08-03T14:29:12.832Z,7230
2022-08-03T14:30:29.071Z,7283
2022-08-03T14:31:45.300Z,7291
2022-08-03T14:33:01.537Z,7380
2022-08-03T14:34:17.784Z,7554
2022-08-03T14:35:34.031Z,7453
2022-08-03T14:36:49.276Z,9961
2022-08-03T14:38:05.521Z,6142
2022-08-03T14:39:21.752Z,5322
2022-08-03T14:40:37.995Z,4746
2022-08-03T14:41:54.243Z,6335
2022-08-03T14:43:10.474Z,6696
2022-08-03T14:44:26.718Z,7224
2022-08-03T14:45:41.979Z,5745
2022-08-03T14:46:57.231Z,7624
2022-08-03T14:48:12.498Z,7822
2022-08-03T14:49:27.750Z,7702
2022-08-03T14:50:43.990Z,7807
2022-08-03T14:52:00.232Z,7819
2022-08-03T14:53:16.473Z,7887
2022-08-03T14:54:32.715Z,8179
2022-08-03T14:55:48.960Z,7999
2022-08-03T14:57:05.202Z,8341
2022-08-03T14:58:21.441Z,7300
2022-08-03T14:59:37.687Z,7592
2022-08-03T15:00:53.924Z,8341
2022-08-03T15:02:10.149Z,8367
2022-08-03T15:03:26.387Z,8357
2022-08-03T15:04:42.643Z,8453
2022-08-03T15:05:57.883Z,8516
2022-08-03T15:07:14.133Z,8751
2022-08-03T15:08:30.370Z,8840
2022-08-03T15:09:46.619Z,8225
2022-08-03T15:11:02.862Z,7885
2022-08-03T15:12:19.086Z,6306
2022-08-03T15:13:35.325Z,7462
2022-08-03T15:14:50.587Z,7488
2022-08-03T15:16:05.862Z,8175
2022-08-03T15:17:21.105Z,8755
2022-08-03T15:18:36.361Z,9100
2022-08-03T15:19:51.634Z,8735
2022-08-03T15:21:06.883Z,5872
2022-08-03T15:22:23.125Z,7328
2022-08-03T15:23:39.377Z,7431
2022-08-03T15:24:55.618Z,7378
2022-08-03T15:26:11.859Z,8097
2022-08-03T15:27:28.090Z,8077
2022-08-03T15:28:44.324Z,8395
2022-08-03T15:30:00.577Z,8319
2022-08-03T15:31:16.806Z,8317
2022-08-03T15:32:33.049Z,8238
2022-08-03T15:33:49.289Z,8220
2022-08-03T15:35:05.531Z,8802
2022-08-03T15:36:21.782Z,9249
2022-08-03T15:37:37.027Z,9235
2022-08-03T15:38:53.267Z,5119
2022-08-03T15:40:09.502Z,4990
2022-08-03T15:41:25.755Z,5308
2022-08-03T15:42:41.990Z,7212
2022-08-03T15:43:58.233Z,6601
2022-08-03T15:45:14.478Z,8508
2022-08-03T15:46:29.728Z,6379
2022-08-03T15:47:44.981Z,5325
2022-08-03T15:49:01.222Z,6507
2022-08-03T15:50:16.487Z,7880
2022-08-03T15:51:31.755Z,7392
2022-08-03T15:52:47.997Z,6435
2022-08-03T15:54:04.232Z,5061
2022-08-03T15:55:20.466Z,10401
2022-08-03T15:56:36.711Z,3081
2022-08-03T15:57:52.945Z,7494
2022-08-03T15:59:09.192Z,6457
2022-08-03T16:00:25.425Z,8758
2022-08-03T16:01:41.669Z,9143
2022-08-03T16:02:57.910Z,6149
2022-08-03T16:04:14.155Z,3023
2022-08-03T16:05:30.379Z,2839
2022-08-03T16:06:46.623Z,1046
2022-08-03T16:08:01.895Z,1769
2022-08-03T16:09:18.135Z,1274
2022-08-03T16:10:34.369Z,1741
2022-08-03T16:11:50.616Z,4206
2022-08-03T16:13:06.000Z,8302
2022-08-03T16:14:23.082Z,1781
2022-08-03T16:15:39.328Z,4035
2022-08-03T16:16:54.593Z,11137
2022-08-03T16:18:09.852Z,6090
2022-08-03T16:19:26.085Z,1400
2022-08-03T16:20:42.317Z,3981
2022-08-03T16:21:57.591Z,2938
2022-08-03T16:23:13.833Z,1023
2022-08-03T16:24:30.064Z,5331
2022-08-03T16:25:46.305Z,1676
2022-08-03T16:27:02.551Z,6020
2022-08-03T16:28:18.778Z,9005
2022-08-03T16:29:35.025Z,2422
2022-08-03T16:30:51.273Z,850
2022-08-03T16:32:07.511Z,4206
2022-08-03T16:33:23.752Z,3030
2022-08-03T16:34:39.990Z,1691
2022-08-03T16:35:56.219Z,1395
2022-08-03T16:37:12.457Z,1321
2022-08-03T16:38:27.726Z,982
2022-08-03T16:39:43.960Z,1537
2022-08-03T16:41:00.204Z,841
2022-08-03T16:42:16.444Z,3155
2022-08-03T16:43:31.694Z,5054
2022-08-03T16:44:46.951Z,1038
2022-08-03T16:46:02.207Z,1463
2022-08-03T16:47:17.467Z,4538
2022-08-03T16:48:32.728Z,6808
2022-08-03T16:49:47.966Z,6900
2022-08-03T16:51:03.238Z,5776
2022-08-03T16:52:18.503Z,6651
2022-08-03T16:53:34.727Z,6986
2022-08-03T16:54:50.966Z,7060
2022-08-03T16:56:07.209Z,6231
2022-08-03T16:57:23.452Z,6290
2022-08-03T16:58:39.689Z,7412
2022-08-03T16:59:55.925Z,1846
2022-08-03T17:01:12.171Z,1690
2022-08-03T17:02:28.417Z,3608
2022-08-03T17:03:44.646Z,8239
2022-08-03T17:05:00.886Z,5355
2022-08-03T17:06:17.128Z,2384
2022-08-03T17:07:33.370Z,2961
2022-08-03T17:08:48.631Z,5384
2022-08-03T17:10:04.870Z,5373
2022-08-03T17:11:21.105Z,5815
2022-08-03T17:12:37.344Z,4601
2022-08-03T17:13:53.597Z,5425
2022-08-03T17:15:09.832Z,5139
2022-08-03T17:16:26.073Z,5288
2022-08-03T17:17:41.328Z,4881
2022-08-03T17:18:56.582Z,4866
2022-08-03T17:20:12.834Z,5422
2022-08-03T17:21:28.100Z,4530
2022-08-03T17:22:43.341Z,4355
2022-08-03T17:23:59.587Z,3946
2022-08-03T17:25:15.832Z,3317
2022-08-03T17:26:32.067Z,2722
2022-08-03T17:27:48.300Z,2327
2022-08-03T17:29:04.549Z,2245
2022-08-03T17:30:20.794Z,1963
2022-08-03T17:31:37.022Z,1649
2022-08-03T17:32:53.267Z,1444
2022-08-03T17:34:09.512Z,1228